sensor_id;sensor_type;location;lat;lon;timestamp;temperature;humidity
85532;SHT35;75970;52.122;5.406;2024-02-16T00:00:45;19.70;57.86
85532;SHT35;75970;52.122;5.406;2024-02-16T00:03:17;19.70;57.85
85532;SHT35;75970;52.122;5.406;2024-02-16T00:05:48;19.68;57.84
85532;SHT35;75970;52.122;5.406;2024-02-16T00:08:20;19.68;57.83
85532;SHT35;75970;52.122;5.406;2024-02-16T00:10:51;19.67;57.83
85532;SHT35;75970;52.122;5.406;2024-02-16T00:13:22;19.66;57.83
85532;SHT35;75970;52.122;5.406;2024-02-16T00:15:56;19.65;57.86
85532;SHT35;75970;52.122;5.406;2024-02-16T00:18:27;19.65;57.83
85532;SHT35;75970;52.122;5.406;2024-02-16T00:21:02;19.63;57.84
85532;SHT35;75970;52.122;5.406;2024-02-16T00:23:34;19.63;57.81
85532;SHT35;75970;52.122;5.406;2024-02-16T00:26:05;19.62;57.83
85532;SHT35;75970;52.122;5.406;2024-02-16T00:28:36;19.62;57.81
85532;SHT35;75970;52.122;5.406;2024-02-16T00:31:08;19.61;57.80
85532;SHT35;75970;52.122;5.406;2024-02-16T00:33:39;19.60;57.79
85532;SHT35;75970;52.122;5.406;2024-02-16T00:36:10;19.59;57.81
85532;SHT35;75970;52.122;5.406;2024-02-16T00:38:42;19.59;57.90
85532;SHT35;75970;52.122;5.406;2024-02-16T00:41:21;19.59;57.88
85532;SHT35;75970;52.122;5.406;2024-02-16T00:43:52;19.59;57.88
85532;SHT35;75970;52.122;5.406;2024-02-16T00:46:23;19.59;57.76
85532;SHT35;75970;52.122;5.406;2024-02-16T00:48:54;19.59;57.75
85532;SHT35;75970;52.122;5.406;2024-02-16T00:51:28;19.58;57.71
85532;SHT35;75970;52.122;5.406;2024-02-16T00:53:59;19.58;57.69
85532;SHT35;75970;52.122;5.406;2024-02-16T00:56:33;19.57;57.68
85532;SHT35;75970;52.122;5.406;2024-02-16T00:59:04;19.57;57.69
85532;SHT35;75970;52.122;5.406;2024-02-16T01:01:37;19.56;57.64
85532;SHT35;75970;52.122;5.406;2024-02-16T01:04:09;19.55;57.66
85532;SHT35;75970;52.122;5.406;2024-02-16T01:06:40;19.55;57.64
85532;SHT35;75970;52.122;5.406;2024-02-16T01:09:11;19.55;57.66
85532;SHT35;75970;52.122;5.406;2024-02-16T01:11:44;19.54;57.59
85532;SHT35;75970;52.122;5.406;2024-02-16T01:14:16;19.53;57.61
85532;SHT35;75970;52.122;5.406;2024-02-16T01:16:48;19.52;57.68
85532;SHT35;75970;52.122;5.406;2024-02-16T01:19:19;19.52;57.64
85532;SHT35;75970;52.122;5.406;2024-02-16T01:21:50;19.52;57.56
85532;SHT35;75970;52.122;5.406;2024-02-16T01:24:26;19.52;57.52
85532;SHT35;75970;52.122;5.406;2024-02-16T01:26:57;19.51;57.60
85532;SHT35;75970;52.122;5.406;2024-02-16T01:29:29;19.51;57.53
85532;SHT35;75970;52.122;5.406;2024-02-16T01:32:05;19.51;57.57
85532;SHT35;75970;52.122;5.406;2024-02-16T01:34:37;19.51;57.54
85532;SHT35;75970;52.122;5.406;2024-02-16T01:37:08;19.51;57.54
85532;SHT35;75970;52.122;5.406;2024-02-16T01:39:39;19.51;57.44
85532;SHT35;75970;52.122;5.406;2024-02-16T01:42:13;19.49;57.49
85532;SHT35;75970;52.122;5.406;2024-02-16T01:44:44;19.49;57.52
85532;SHT35;75970;52.122;5.406;2024-02-16T01:47:16;19.49;57.48
85532;SHT35;75970;52.122;5.406;2024-02-16T01:49:49;19.49;57.43
85532;SHT35;75970;52.122;5.406;2024-02-16T01:52:21;19.49;57.41
85532;SHT35;75970;52.122;5.406;2024-02-16T01:54:52;19.49;57.32
85532;SHT35;75970;52.122;5.406;2024-02-16T01:57:24;19.48;57.36
85532;SHT35;75970;52.122;5.406;2024-02-16T01:59:55;19.47;57.35
85532;SHT35;75970;52.122;5.406;2024-02-16T02:02:27;19.46;57.37
85532;SHT35;75970;52.122;5.406;2024-02-16T02:04:59;19.45;57.36
85532;SHT35;75970;52.122;5.406;2024-02-16T02:07:30;19.45;57.31
85532;SHT35;75970;52.122;5.406;2024-02-16T02:10:02;19.44;57.35
85532;SHT35;75970;52.122;5.406;2024-02-16T02:12:33;19.43;57.37
85532;SHT35;75970;52.122;5.406;2024-02-16T02:15:05;19.43;57.34
85532;SHT35;75970;52.122;5.406;2024-02-16T02:17:36;19.43;57.34
85532;SHT35;75970;52.122;5.406;2024-02-16T02:20:08;19.43;57.31
85532;SHT35;75970;52.122;5.406;2024-02-16T02:22:42;19.43;57.31
85532;SHT35;75970;52.122;5.406;2024-02-16T02:25:13;19.42;57.30
85532;SHT35;75970;52.122;5.406;2024-02-16T02:27:44;19.42;57.27
85532;SHT35;75970;52.122;5.406;2024-02-16T02:30:15;19.42;57.27
85532;SHT35;75970;52.122;5.406;2024-02-16T02:32:47;19.42;57.26
85532;SHT35;75970;52.122;5.406;2024-02-16T02:35:18;19.41;57.18
85532;SHT35;75970;52.122;5.406;2024-02-16T02:37:49;19.40;57.10
85532;SHT35;75970;52.122;5.406;2024-02-16T02:40:21;19.39;57.14
85532;SHT35;75970;52.122;5.406;2024-02-16T02:42:54;19.38;57.20
85532;SHT35;75970;52.122;5.406;2024-02-16T02:45:25;19.38;57.16
85532;SHT35;75970;52.122;5.406;2024-02-16T02:47:56;19.37;57.10
85532;SHT35;75970;52.122;5.406;2024-02-16T02:50:28;19.36;57.11
85532;SHT35;75970;52.122;5.406;2024-02-16T02:53:00;19.35;57.17
85532;SHT35;75970;52.122;5.406;2024-02-16T02:55:31;19.34;57.14
85532;SHT35;75970;52.122;5.406;2024-02-16T02:58:03;19.34;57.21
85532;SHT35;75970;52.122;5.406;2024-02-16T03:00:34;19.34;57.17
85532;SHT35;75970;52.122;5.406;2024-02-16T03:03:05;19.33;57.12
85532;SHT35;75970;52.122;5.406;2024-02-16T03:05:36;19.33;57.13
85532;SHT35;75970;52.122;5.406;2024-02-16T03:08:07;19.32;57.12
85532;SHT35;75970;52.122;5.406;2024-02-16T03:10:40;19.32;57.12
85532;SHT35;75970;52.122;5.406;2024-02-16T03:13:13;19.32;57.12
85532;SHT35;75970;52.122;5.406;2024-02-16T03:15:47;19.32;57.12
85532;SHT35;75970;52.122;5.406;2024-02-16T03:18:18;19.31;57.06
85532;SHT35;75970;52.122;5.406;2024-02-16T03:21:22;19.30;57.09
85532;SHT35;75970;52.122;5.406;2024-02-16T03:23:53;19.30;57.08
85532;SHT35;75970;52.122;5.406;2024-02-16T03:26:24;19.30;56.98
85532;SHT35;75970;52.122;5.406;2024-02-16T03:28:56;19.30;57.03
85532;SHT35;75970;52.122;5.406;2024-02-16T03:31:29;19.29;56.92
85532;SHT35;75970;52.122;5.406;2024-02-16T03:34:02;19.27;56.96
85532;SHT35;75970;52.122;5.406;2024-02-16T03:36:33;19.26;57.01
85532;SHT35;75970;52.122;5.406;2024-02-16T03:39:04;19.26;56.93
85532;SHT35;75970;52.122;5.406;2024-02-16T03:41:38;19.25;56.97
85532;SHT35;75970;52.122;5.406;2024-02-16T03:44:09;19.24;56.96
85532;SHT35;75970;52.122;5.406;2024-02-16T03:46:40;19.23;56.91
85532;SHT35;75970;52.122;5.406;2024-02-16T03:49:12;19.21;56.91
85532;SHT35;75970;52.122;5.406;2024-02-16T03:51:49;19.20;56.98
85532;SHT35;75970;52.122;5.406;2024-02-16T03:54:20;19.20;57.03
85532;SHT35;75970;52.122;5.406;2024-02-16T03:56:55;19.20;57.06
85532;SHT35;75970;52.122;5.406;2024-02-16T03:59:27;19.20;57.06
85532;SHT35;75970;52.122;5.406;2024-02-16T04:01:59;19.20;57.01
85532;SHT35;75970;52.122;5.406;2024-02-16T04:04:30;19.20;57.01
85532;SHT35;75970;52.122;5.406;2024-02-16T04:07:01;19.20;56.98
85532;SHT35;75970;52.122;5.406;2024-02-16T04:09:32;19.19;56.99
85532;SHT35;75970;52.122;5.406;2024-02-16T04:12:09;19.20;56.95
85532;SHT35;75970;52.122;5.406;2024-02-16T04:14:40;19.20;56.92
85532;SHT35;75970;52.122;5.406;2024-02-16T04:17:12;19.19;56.89
85532;SHT35;75970;52.122;5.406;2024-02-16T04:19:43;19.19;56.90
85532;SHT35;75970;52.122;5.406;2024-02-16T04:22:15;19.18;56.84
85532;SHT35;75970;52.122;5.406;2024-02-16T04:24:46;19.18;56.84
85532;SHT35;75970;52.122;5.406;2024-02-16T04:27:17;19.18;56.83
85532;SHT35;75970;52.122;5.406;2024-02-16T04:29:48;19.18;56.83
85532;SHT35;75970;52.122;5.406;2024-02-16T04:32:19;19.17;56.83
85532;SHT35;75970;52.122;5.406;2024-02-16T04:34:51;19.17;56.80
85532;SHT35;75970;52.122;5.406;2024-02-16T04:37:25;19.17;56.77
85532;SHT35;75970;52.122;5.406;2024-02-16T04:39:56;19.16;56.78
85532;SHT35;75970;52.122;5.406;2024-02-16T04:42:28;19.16;56.78
85532;SHT35;75970;52.122;5.406;2024-02-16T04:44:59;19.15;56.74
85532;SHT35;75970;52.122;5.406;2024-02-16T04:47:34;19.15;56.74
85532;SHT35;75970;52.122;5.406;2024-02-16T04:50:06;19.14;56.72
85532;SHT35;75970;52.122;5.406;2024-02-16T04:52:41;19.14;56.72
85532;SHT35;75970;52.122;5.406;2024-02-16T04:55:13;19.13;56.73
85532;SHT35;75970;52.122;5.406;2024-02-16T04:57:44;19.13;56.67
85532;SHT35;75970;52.122;5.406;2024-02-16T05:00:15;19.13;56.66
85532;SHT35;75970;52.122;5.406;2024-02-16T05:02:47;19.12;56.57
85532;SHT35;75970;52.122;5.406;2024-02-16T05:05:18;19.11;56.61
85532;SHT35;75970;52.122;5.406;2024-02-16T05:07:50;19.10;56.65
85532;SHT35;75970;52.122;5.406;2024-02-16T05:10:21;19.09;56.62
85532;SHT35;75970;52.122;5.406;2024-02-16T05:12:56;19.08;56.68
85532;SHT35;75970;52.122;5.406;2024-02-16T05:15:28;19.07;56.66
85532;SHT35;75970;52.122;5.406;2024-02-16T05:18:00;19.07;56.67
85532;SHT35;75970;52.122;5.406;2024-02-16T05:20:32;19.07;56.69
85532;SHT35;75970;52.122;5.406;2024-02-16T05:23:03;19.05;56.58
85532;SHT35;75970;52.122;5.406;2024-02-16T05:25:34;19.04;56.51
85532;SHT35;75970;52.122;5.406;2024-02-16T05:28:05;19.01;56.55
85532;SHT35;75970;52.122;5.406;2024-02-16T05:30:36;18.99;56.66
85532;SHT35;75970;52.122;5.406;2024-02-16T05:33:08;18.98;56.80
85532;SHT35;75970;52.122;5.406;2024-02-16T05:35:40;18.97;56.95
85532;SHT35;75970;52.122;5.406;2024-02-16T05:38:13;18.96;57.09
85532;SHT35;75970;52.122;5.406;2024-02-16T05:41:02;18.97;57.24
85532;SHT35;75970;52.122;5.406;2024-02-16T05:43:34;18.98;57.35
85532;SHT35;75970;52.122;5.406;2024-02-16T05:46:06;18.99;57.51
85532;SHT35;75970;52.122;5.406;2024-02-16T05:48:37;19.00;57.67
85532;SHT35;75970;52.122;5.406;2024-02-16T05:51:14;19.02;57.82
85532;SHT35;75970;52.122;5.406;2024-02-16T05:53:45;19.05;57.97
85532;SHT35;75970;52.122;5.406;2024-02-16T05:56:16;19.08;58.12
85532;SHT35;75970;52.122;5.406;2024-02-16T05:58:48;19.11;58.25
85532;SHT35;75970;52.122;5.406;2024-02-16T06:01:19;19.15;58.36
85532;SHT35;75970;52.122;5.406;2024-02-16T06:03:50;19.19;58.49
85532;SHT35;75970;52.122;5.406;2024-02-16T06:06:21;19.24;58.57
85532;SHT35;75970;52.122;5.406;2024-02-16T06:08:52;19.29;58.66
85532;SHT35;75970;52.122;5.406;2024-02-16T06:11:25;19.33;58.70
85532;SHT35;75970;52.122;5.406;2024-02-16T06:13:56;19.38;58.77
85532;SHT35;75970;52.122;5.406;2024-02-16T06:16:27;19.43;58.78
85532;SHT35;75970;52.122;5.406;2024-02-16T06:18:58;19.48;58.77
85532;SHT35;75970;52.122;5.406;2024-02-16T06:21:32;19.53;58.77
85532;SHT35;75970;52.122;5.406;2024-02-16T06:24:03;19.58;58.73
85532;SHT35;75970;52.122;5.406;2024-02-16T06:26:34;19.62;58.69
85532;SHT35;75970;52.122;5.406;2024-02-16T06:29:05;19.66;58.64
85532;SHT35;75970;52.122;5.406;2024-02-16T06:31:39;19.70;58.58
85532;SHT35;75970;52.122;5.406;2024-02-16T06:34:10;19.74;58.50
85532;SHT35;75970;52.122;5.406;2024-02-16T06:36:42;19.77;58.43
85532;SHT35;75970;52.122;5.406;2024-02-16T06:39:15;19.80;58.34
85532;SHT35;75970;52.122;5.406;2024-02-16T06:42:06;19.82;58.28
85532;SHT35;75970;52.122;5.406;2024-02-16T06:44:40;19.85;58.18
85532;SHT35;75970;52.122;5.406;2024-02-16T06:47:11;19.88;58.10
85532;SHT35;75970;52.122;5.406;2024-02-16T06:49:42;19.89;58.01
85532;SHT35;75970;52.122;5.406;2024-02-16T06:52:16;19.91;57.95
85532;SHT35;75970;52.122;5.406;2024-02-16T06:54:48;19.92;57.88
85532;SHT35;75970;52.122;5.406;2024-02-16T06:57:20;19.93;57.82
85532;SHT35;75970;52.122;5.406;2024-02-16T06:59:54;19.94;57.76
85532;SHT35;75970;52.122;5.406;2024-02-16T07:02:26;19.95;57.71
85532;SHT35;75970;52.122;5.406;2024-02-16T07:04:58;19.95;57.65
85532;SHT35;75970;52.122;5.406;2024-02-16T07:07:29;19.95;57.61
85532;SHT35;75970;52.122;5.406;2024-02-16T07:10:05;19.96;57.57
85532;SHT35;75970;52.122;5.406;2024-02-16T07:12:38;19.96;57.55
85532;SHT35;75970;52.122;5.406;2024-02-16T07:15:10;19.96;57.53
85532;SHT35;75970;52.122;5.406;2024-02-16T07:17:41;19.96;57.53
85532;SHT35;75970;52.122;5.406;2024-02-16T07:20:13;19.97;57.50
85532;SHT35;75970;52.122;5.406;2024-02-16T07:22:45;19.97;57.50
85532;SHT35;75970;52.122;5.406;2024-02-16T07:25:16;19.98;57.49
85532;SHT35;75970;52.122;5.406;2024-02-16T07:27:47;19.98;57.51
85532;SHT35;75970;52.122;5.406;2024-02-16T07:30:18;19.99;57.50
85532;SHT35;75970;52.122;5.406;2024-02-16T07:33:01;19.99;57.50
85532;SHT35;75970;52.122;5.406;2024-02-16T07:35:33;19.99;57.50
85532;SHT35;75970;52.122;5.406;2024-02-16T07:38:05;20.00;57.49
85532;SHT35;75970;52.122;5.406;2024-02-16T07:40:36;20.01;57.50
85532;SHT35;75970;52.122;5.406;2024-02-16T07:43:08;20.01;57.50
85532;SHT35;75970;52.122;5.406;2024-02-16T07:45:39;20.02;57.46
85532;SHT35;75970;52.122;5.406;2024-02-16T07:48:10;20.03;57.45
85532;SHT35;75970;52.122;5.406;2024-02-16T07:50:42;20.04;57.44
85532;SHT35;75970;52.122;5.406;2024-02-16T07:53:14;20.04;57.45
85532;SHT35;75970;52.122;5.406;2024-02-16T07:55:45;20.05;57.42
85532;SHT35;75970;52.122;5.406;2024-02-16T07:58:16;20.05;57.39
85532;SHT35;75970;52.122;5.406;2024-02-16T08:00:47;20.06;57.39
85532;SHT35;75970;52.122;5.406;2024-02-16T08:03:19;20.07;57.37
85532;SHT35;75970;52.122;5.406;2024-02-16T08:05:51;20.07;57.35
85532;SHT35;75970;52.122;5.406;2024-02-16T08:08:22;20.08;57.35
85532;SHT35;75970;52.122;5.406;2024-02-16T08:10:55;20.08;57.33
85532;SHT35;75970;52.122;5.406;2024-02-16T08:13:26;20.09;57.29
85532;SHT35;75970;52.122;5.406;2024-02-16T08:15:57;20.09;57.29
85532;SHT35;75970;52.122;5.406;2024-02-16T08:18:28;20.10;57.27
85532;SHT35;75970;52.122;5.406;2024-02-16T08:21:01;20.10;57.27
85532;SHT35;75970;52.122;5.406;2024-02-16T08:23:33;20.11;57.25
85532;SHT35;75970;52.122;5.406;2024-02-16T08:26:04;20.12;57.23
85532;SHT35;75970;52.122;5.406;2024-02-16T08:28:35;20.12;57.19
85532;SHT35;75970;52.122;5.406;2024-02-16T08:31:09;20.13;57.31
85532;SHT35;75970;52.122;5.406;2024-02-16T08:33:40;20.14;57.46
85532;SHT35;75970;52.122;5.406;2024-02-16T08:36:12;20.16;57.43
85532;SHT35;75970;52.122;5.406;2024-02-16T08:38:43;20.18;57.38
85532;SHT35;75970;52.122;5.406;2024-02-16T08:41:25;20.21;57.39
85532;SHT35;75970;52.122;5.406;2024-02-16T08:43:56;20.24;57.32
85532;SHT35;75970;52.122;5.406;2024-02-16T08:46:27;20.28;57.26
85532;SHT35;75970;52.122;5.406;2024-02-16T08:48:58;20.31;57.27
85532;SHT35;75970;52.122;5.406;2024-02-16T08:51:32;20.34;57.19
85532;SHT35;75970;52.122;5.406;2024-02-16T08:54:04;20.37;57.11
85532;SHT35;75970;52.122;5.406;2024-02-16T08:56:38;20.39;57.01
85532;SHT35;75970;52.122;5.406;2024-02-16T08:59:10;20.42;56.97
85532;SHT35;75970;52.122;5.406;2024-02-16T09:01:43;20.43;56.93
85532;SHT35;75970;52.122;5.406;2024-02-16T09:04:14;20.45;56.90
85532;SHT35;75970;52.122;5.406;2024-02-16T09:06:45;20.48;56.86
85532;SHT35;75970;52.122;5.406;2024-02-16T09:09:18;20.49;56.83
85532;SHT35;75970;52.122;5.406;2024-02-16T09:11:50;20.50;56.73
85532;SHT35;75970;52.122;5.406;2024-02-16T09:14:23;20.51;56.67
85532;SHT35;75970;52.122;5.406;2024-02-16T09:16:54;20.51;56.61
85532;SHT35;75970;52.122;5.406;2024-02-16T09:19:25;20.51;56.59
85532;SHT35;75970;52.122;5.406;2024-02-16T09:21:57;20.51;56.54
85532;SHT35;75970;52.122;5.406;2024-02-16T09:24:32;20.50;56.54
85532;SHT35;75970;52.122;5.406;2024-02-16T09:27:06;20.49;56.51
85532;SHT35;75970;52.122;5.406;2024-02-16T09:29:39;20.49;56.50
85532;SHT35;75970;52.122;5.406;2024-02-16T09:32:35;20.48;56.52
85532;SHT35;75970;52.122;5.406;2024-02-16T09:35:06;20.47;56.50
85532;SHT35;75970;52.122;5.406;2024-02-16T09:37:39;20.46;56.49
85532;SHT35;75970;52.122;5.406;2024-02-16T09:40:12;20.45;56.52
85532;SHT35;75970;52.122;5.406;2024-02-16T09:42:48;20.45;56.48
85532;SHT35;75970;52.122;5.406;2024-02-16T09:45:20;20.44;56.48
85532;SHT35;75970;52.122;5.406;2024-02-16T09:47:55;20.43;56.48
85532;SHT35;75970;52.122;5.406;2024-02-16T09:50:35;20.43;56.52
85532;SHT35;75970;52.122;5.406;2024-02-16T09:53:08;20.42;56.54
85532;SHT35;75970;52.122;5.406;2024-02-16T09:55:41;20.42;56.55
85532;SHT35;75970;52.122;5.406;2024-02-16T09:58:13;20.41;56.55
85532;SHT35;75970;52.122;5.406;2024-02-16T10:00:51;20.41;56.58
85532;SHT35;75970;52.122;5.406;2024-02-16T10:03:28;20.41;56.57
85532;SHT35;75970;52.122;5.406;2024-02-16T10:06:12;20.40;56.61
85532;SHT35;75970;52.122;5.406;2024-02-16T10:08:49;20.40;56.60
85532;SHT35;75970;52.122;5.406;2024-02-16T10:11:27;20.39;56.59
85532;SHT35;75970;52.122;5.406;2024-02-16T10:14:02;20.39;56.58
85532;SHT35;75970;52.122;5.406;2024-02-16T10:16:33;20.38;56.59
85532;SHT35;75970;52.122;5.406;2024-02-16T10:19:07;20.38;56.58
85532;SHT35;75970;52.122;5.406;2024-02-16T10:21:46;20.37;56.57
85532;SHT35;75970;52.122;5.406;2024-02-16T10:24:22;20.37;56.56
85532;SHT35;75970;52.122;5.406;2024-02-16T10:26:55;20.36;56.56
85532;SHT35;75970;52.122;5.406;2024-02-16T10:29:27;20.35;56.57
85532;SHT35;75970;52.122;5.406;2024-02-16T10:31:59;20.34;56.56
85532;SHT35;75970;52.122;5.406;2024-02-16T10:34:33;20.34;56.55
85532;SHT35;75970;52.122;5.406;2024-02-16T10:37:09;20.33;56.56
85532;SHT35;75970;52.122;5.406;2024-02-16T10:39:41;20.33;56.56
85532;SHT35;75970;52.122;5.406;2024-02-16T10:42:20;20.32;56.55
85532;SHT35;75970;52.122;5.406;2024-02-16T10:44:53;20.32;56.54
85532;SHT35;75970;52.122;5.406;2024-02-16T10:47:24;20.31;56.56
85532;SHT35;75970;52.122;5.406;2024-02-16T10:49:56;20.30;56.55
85532;SHT35;75970;52.122;5.406;2024-02-16T10:52:36;20.30;56.54
85532;SHT35;75970;52.122;5.406;2024-02-16T10:55:10;20.29;56.53
85532;SHT35;75970;52.122;5.406;2024-02-16T10:57:42;20.28;56.56
85532;SHT35;75970;52.122;5.406;2024-02-16T11:00:16;20.28;56.54
85532;SHT35;75970;52.122;5.406;2024-02-16T11:02:57;20.27;56.55
85532;SHT35;75970;52.122;5.406;2024-02-16T11:05:36;20.27;56.54
85532;SHT35;75970;52.122;5.406;2024-02-16T11:08:14;20.26;56.52
85532;SHT35;75970;52.122;5.406;2024-02-16T11:10:58;20.26;56.51
85532;SHT35;75970;52.122;5.406;2024-02-16T11:13:34;20.26;56.51
85532;SHT35;75970;52.122;5.406;2024-02-16T11:16:10;20.25;56.49
85532;SHT35;75970;52.122;5.406;2024-02-16T11:18:43;20.24;56.50
85532;SHT35;75970;52.122;5.406;2024-02-16T11:21:18;20.24;56.50
85532;SHT35;75970;52.122;5.406;2024-02-16T11:23:52;20.24;56.51
85532;SHT35;75970;52.122;5.406;2024-02-16T11:26:29;20.24;56.52
85532;SHT35;75970;52.122;5.406;2024-02-16T11:29:00;20.24;56.50
85532;SHT35;75970;52.122;5.406;2024-02-16T11:31:55;20.24;56.52
85532;SHT35;75970;52.122;5.406;2024-02-16T11:34:27;20.24;56.51
85532;SHT35;75970;52.122;5.406;2024-02-16T11:37:01;20.24;56.72
85532;SHT35;75970;52.122;5.406;2024-02-16T11:39:34;20.25;56.76
85532;SHT35;75970;52.122;5.406;2024-02-16T11:42:19;20.26;56.81
85532;SHT35;75970;52.122;5.406;2024-02-16T11:44:53;20.28;56.76
85532;SHT35;75970;52.122;5.406;2024-02-16T11:47:26;20.29;56.70
85532;SHT35;75970;52.122;5.406;2024-02-16T11:50:07;20.29;56.66
85532;SHT35;75970;52.122;5.406;2024-02-16T11:52:47;20.29;56.62
85532;SHT35;75970;52.122;5.406;2024-02-16T11:55:18;20.29;56.60
85532;SHT35;75970;52.122;5.406;2024-02-16T11:57:50;20.29;56.58
85532;SHT35;75970;52.122;5.406;2024-02-16T12:00:22;20.29;56.55
85532;SHT35;75970;52.122;5.406;2024-02-16T12:03:01;20.29;56.54
85532;SHT35;75970;52.122;5.406;2024-02-16T12:05:32;20.29;56.53
85532;SHT35;75970;52.122;5.406;2024-02-16T12:08:06;20.28;56.50
85532;SHT35;75970;52.122;5.406;2024-02-16T12:10:37;20.28;56.50
85532;SHT35;75970;52.122;5.406;2024-02-16T12:13:09;20.28;56.50
85532;SHT35;75970;52.122;5.406;2024-02-16T12:15:40;20.27;56.48
85532;SHT35;75970;52.122;5.406;2024-02-16T12:18:22;20.27;56.49
85532;SHT35;75970;52.122;5.406;2024-02-16T12:21:02;20.27;56.49
85532;SHT35;75970;52.122;5.406;2024-02-16T12:23:39;20.26;56.48
85532;SHT35;75970;52.122;5.406;2024-02-16T12:26:10;20.26;56.47
85532;SHT35;75970;52.122;5.406;2024-02-16T12:28:43;20.26;56.47
85532;SHT35;75970;52.122;5.406;2024-02-16T12:34:11;20.26;56.45
85532;SHT35;75970;52.122;5.406;2024-02-16T12:36:43;20.26;56.45
85532;SHT35;75970;52.122;5.406;2024-02-16T12:39:18;20.26;56.44
85532;SHT35;75970;52.122;5.406;2024-02-16T12:42:01;20.26;56.46
85532;SHT35;75970;52.122;5.406;2024-02-16T12:44:32;20.26;56.49
85532;SHT35;75970;52.122;5.406;2024-02-16T12:47:03;20.26;56.46
85532;SHT35;75970;52.122;5.406;2024-02-16T12:49:36;20.26;56.46
85532;SHT35;75970;52.122;5.406;2024-02-16T12:52:25;20.26;56.46
85532;SHT35;75970;52.122;5.406;2024-02-16T12:54:57;20.26;56.47
85532;SHT35;75970;52.122;5.406;2024-02-16T12:57:28;20.26;56.44
85532;SHT35;75970;52.122;5.406;2024-02-16T12:59:59;20.26;56.45
85532;SHT35;75970;52.122;5.406;2024-02-16T13:02:36;20.26;56.45
85532;SHT35;75970;52.122;5.406;2024-02-16T13:05:07;20.26;56.45
85532;SHT35;75970;52.122;5.406;2024-02-16T13:07:40;20.26;56.47
85532;SHT35;75970;52.122;5.406;2024-02-16T13:10:11;20.27;56.48
85532;SHT35;75970;52.122;5.406;2024-02-16T13:12:57;20.27;56.49
85532;SHT35;75970;52.122;5.406;2024-02-16T13:15:31;20.28;56.47
85532;SHT35;75970;52.122;5.406;2024-02-16T13:18:02;20.29;56.48
85532;SHT35;75970;52.122;5.406;2024-02-16T13:20:34;20.29;56.49
85532;SHT35;75970;52.122;5.406;2024-02-16T13:23:05;20.30;56.49
85532;SHT35;75970;52.122;5.406;2024-02-16T13:25:39;20.30;56.48
85532;SHT35;75970;52.122;5.406;2024-02-16T13:28:10;20.31;56.50
85532;SHT35;75970;52.122;5.406;2024-02-16T13:30:42;20.32;56.46
85532;SHT35;75970;52.122;5.406;2024-02-16T13:33:13;20.32;56.46
85532;SHT35;75970;52.122;5.406;2024-02-16T13:35:44;20.33;56.45
85532;SHT35;75970;52.122;5.406;2024-02-16T13:38:15;20.33;56.45
85532;SHT35;75970;52.122;5.406;2024-02-16T13:40:47;20.33;56.46
85532;SHT35;75970;52.122;5.406;2024-02-16T13:43:18;20.34;56.45
85532;SHT35;75970;52.122;5.406;2024-02-16T13:45:53;20.34;56.46
85532;SHT35;75970;52.122;5.406;2024-02-16T13:48:26;20.35;56.43
85532;SHT35;75970;52.122;5.406;2024-02-16T13:51:04;20.35;56.44
85532;SHT35;75970;52.122;5.406;2024-02-16T13:53:36;20.36;56.41
85532;SHT35;75970;52.122;5.406;2024-02-16T13:56:07;20.37;56.42
85532;SHT35;75970;52.122;5.406;2024-02-16T13:58:38;20.37;56.40
85532;SHT35;75970;52.122;5.406;2024-02-16T14:01:10;20.37;56.41
85532;SHT35;75970;52.122;5.406;2024-02-16T14:03:41;20.38;56.41
85532;SHT35;75970;52.122;5.406;2024-02-16T14:06:13;20.38;56.42
85532;SHT35;75970;52.122;5.406;2024-02-16T14:08:44;20.38;56.43
85532;SHT35;75970;52.122;5.406;2024-02-16T14:11:19;20.38;56.42
85532;SHT35;75970;52.122;5.406;2024-02-16T14:13:51;20.39;56.41
85532;SHT35;75970;52.122;5.406;2024-02-16T14:16:22;20.39;56.42
85532;SHT35;75970;52.122;5.406;2024-02-16T14:18:54;20.40;56.40
85532;SHT35;75970;52.122;5.406;2024-02-16T14:21:31;20.40;56.43
85532;SHT35;75970;52.122;5.406;2024-02-16T14:24:02;20.40;56.41
85532;SHT35;75970;52.122;5.406;2024-02-16T14:26:33;20.41;56.41
85532;SHT35;75970;52.122;5.406;2024-02-16T14:29:07;20.41;56.41
85532;SHT35;75970;52.122;5.406;2024-02-16T14:31:42;20.41;56.42
85532;SHT35;75970;52.122;5.406;2024-02-16T14:34:13;20.42;56.39
85532;SHT35;75970;52.122;5.406;2024-02-16T14:36:45;20.42;56.41
85532;SHT35;75970;52.122;5.406;2024-02-16T14:39:16;20.42;56.40
85532;SHT35;75970;52.122;5.406;2024-02-16T14:41:55;20.42;56.39
85532;SHT35;75970;52.122;5.406;2024-02-16T14:44:26;20.43;56.39
85532;SHT35;75970;52.122;5.406;2024-02-16T14:46:57;20.43;56.38
85532;SHT35;75970;52.122;5.406;2024-02-16T14:49:28;20.43;56.37
85532;SHT35;75970;52.122;5.406;2024-02-16T14:52:11;20.43;56.35
85532;SHT35;75970;52.122;5.406;2024-02-16T14:54:42;20.43;56.37
85532;SHT35;75970;52.122;5.406;2024-02-16T14:57:14;20.43;56.35
85532;SHT35;75970;52.122;5.406;2024-02-16T14:59:49;20.43;56.35
85532;SHT35;75970;52.122;5.406;2024-02-16T15:02:25;20.44;56.36
85532;SHT35;75970;52.122;5.406;2024-02-16T15:04:56;20.44;56.33
85532;SHT35;75970;52.122;5.406;2024-02-16T15:07:28;20.44;56.35
85532;SHT35;75970;52.122;5.406;2024-02-16T15:10:00;20.44;56.35
85532;SHT35;75970;52.122;5.406;2024-02-16T15:12:45;20.45;56.36
85532;SHT35;75970;52.122;5.406;2024-02-16T15:15:16;20.45;56.33
85532;SHT35;75970;52.122;5.406;2024-02-16T15:17:47;20.45;56.35
85532;SHT35;75970;52.122;5.406;2024-02-16T15:20:19;20.45;56.34
85532;SHT35;75970;52.122;5.406;2024-02-16T15:22:58;20.45;56.33
85532;SHT35;75970;52.122;5.406;2024-02-16T15:25:29;20.45;56.33
85532;SHT35;75970;52.122;5.406;2024-02-16T15:28:01;20.45;56.31
85532;SHT35;75970;52.122;5.406;2024-02-16T15:30:34;20.46;56.32
85532;SHT35;75970;52.122;5.406;2024-02-16T15:33:05;20.46;56.31
85532;SHT35;75970;52.122;5.406;2024-02-16T15:35:37;20.46;56.31
85532;SHT35;75970;52.122;5.406;2024-02-16T15:38:08;20.46;56.30
85532;SHT35;75970;52.122;5.406;2024-02-16T15:40:39;20.46;56.31
85532;SHT35;75970;52.122;5.406;2024-02-16T15:43:10;20.46;56.30
85532;SHT35;75970;52.122;5.406;2024-02-16T15:45:42;20.46;56.27
85532;SHT35;75970;52.122;5.406;2024-02-16T15:48:15;20.46;56.27
85532;SHT35;75970;52.122;5.406;2024-02-16T15:50:47;20.46;56.26
85532;SHT35;75970;52.122;5.406;2024-02-16T15:53:23;20.46;56.26
85532;SHT35;75970;52.122;5.406;2024-02-16T15:55:54;20.46;56.24
85532;SHT35;75970;52.122;5.406;2024-02-16T15:58:25;20.46;56.23
85532;SHT35;75970;52.122;5.406;2024-02-16T16:00:59;20.46;56.21
85532;SHT35;75970;52.122;5.406;2024-02-16T16:03:30;20.47;56.20
85532;SHT35;75970;52.122;5.406;2024-02-16T16:06:02;20.47;56.16
85532;SHT35;75970;52.122;5.406;2024-02-16T16:08:33;20.47;56.16